Kingsville Naval Air Station
KNQI : now visible

Airfield :











YOU CAN JOIN US ON...

 
LOGIN :

Register | Disclaimer

   EN    FR    IT 

 









Legend :    VFR   Marginal VFR   IFR   Intensive IFR   Very Intensive IFR
Visi :
Ceiling :
>= 8 km
>= 3000ft
5 to 8 km
1000 to 3000 ft
1500m to 5 km
500 to 1000 ft
800 to 1500m
200 to 500 ft
< 800m
< 200 ft
Symbols :   Thunderstorms  Fog  Heavy snow  Heavy precipitations  Wind > 20 kt






- Airport Elevation : 50 ft


KNQI - Kingsville Naval Air Station

CURRENT METAR :
  • 110556Z 01007KT 10SM OVC016 11/07 A3040 RMK AO2 SLP291 T01060072 10117 20100 402280100 51013

EXPIRED METARs :
  • 110456Z 36009KT 10SM OVC015 10/07 A3040 RMK AO2 SLP290 T01000072
  • 110356Z 36010KT 10SM OVC017 10/07 A3038 RMK AO2 SLP285 T01000072

TAF TAF KNQI
Valid from the 10 at 23:00 until the 11 at 23:00 UTC


1023/1123 36014G22KT 9999 VCSH BKN015 OVC021 510004 QNH3020INS
TEMPO 1023/1102 01018G25KT -RA BKN014 OVC020
FM110200 36013G20KT 9999 VCSH OVC018 500000 QNH3030INS
FM111400 36011KT 9999 BKN016 OVC025 QNH3043INS
FM111900 03010KT 9999 SCT025 BKN180 BKN250 QNH3029INS AUTOMATED SENSOR METWATCH 1106 TIL 1113 T06/1112Z T16/1120Z FN20042



MET'MAP, your aeronautical weather chart ! - Copyright ORBIFLY December 2007 - Disclaimer

ORBIFLY MET'MAP TEAM :

Programming & Development : Alexandra Zaïnal
Concept & original design : Baudouin d'Aumeries
Assistance for programming : Marc-Olivier Méhu
Technical & hardware support : Manuel Goepfert

Contact : metmap@orbifly.com




SOURCES & CREDITS :

   NOAA       Earth
Advisory